sensor_id;sensor_type;location;lat;lon;timestamp;P1;durP1;ratioP1;P2;durP2;ratioP2
64950;SDS011;51482;47.014;7.652;2024-01-15T00:02:16;2.30;;;2.10;;
64950;SDS011;51482;47.014;7.652;2024-01-15T00:04:41;2.57;;;2.37;;
64950;SDS011;51482;47.014;7.652;2024-01-15T00:07:07;3.57;;;2.53;;
64950;SDS011;51482;47.014;7.652;2024-01-15T00:09:33;2.63;;;2.20;;
64950;SDS011;51482;47.014;7.652;2024-01-15T00:12:00;4.10;;;3.30;;
64950;SDS011;51482;47.014;7.652;2024-01-15T00:14:26;3.00;;;2.70;;
64950;SDS011;51482;47.014;7.652;2024-01-15T00:16:52;3.43;;;2.77;;
64950;SDS011;51482;47.014;7.652;2024-01-15T00:19:19;2.77;;;2.23;;
64950;SDS011;51482;47.014;7.652;2024-01-15T00:21:49;3.60;;;3.27;;
64950;SDS011;51482;47.014;7.652;2024-01-15T00:24:15;3.03;;;2.60;;
64950;SDS011;51482;47.014;7.652;2024-01-15T00:26:40;3.33;;;2.40;;
64950;SDS011;51482;47.014;7.652;2024-01-15T00:29:06;3.50;;;2.53;;
64950;SDS011;51482;47.014;7.652;2024-01-15T00:31:32;3.37;;;2.80;;
64950;SDS011;51482;47.014;7.652;2024-01-15T00:33:58;2.67;;;2.47;;
64950;SDS011;51482;47.014;7.652;2024-01-15T00:36:24;3.80;;;3.47;;
64950;SDS011;51482;47.014;7.652;2024-01-15T00:38:49;3.10;;;2.83;;
64950;SDS011;51482;47.014;7.652;2024-01-15T00:41:16;2.60;;;2.33;;
64950;SDS011;51482;47.014;7.652;2024-01-15T00:43:41;2.63;;;2.43;;
64950;SDS011;51482;47.014;7.652;2024-01-15T00:46:07;2.83;;;2.60;;
64950;SDS011;51482;47.014;7.652;2024-01-15T00:48:33;7.53;;;5.47;;
64950;SDS011;51482;47.014;7.652;2024-01-15T00:50:58;4.47;;;2.60;;
64950;SDS011;51482;47.014;7.652;2024-01-15T00:53:25;3.70;;;2.70;;
64950;SDS011;51482;47.014;7.652;2024-01-15T00:55:50;3.23;;;2.70;;
64950;SDS011;51482;47.014;7.652;2024-01-15T00:58:16;2.50;;;2.30;;
64950;SDS011;51482;47.014;7.652;2024-01-15T01:00:42;3.97;;;2.83;;
64950;SDS011;51482;47.014;7.652;2024-01-15T01:03:08;3.60;;;2.87;;
64950;SDS011;51482;47.014;7.652;2024-01-15T01:05:34;3.10;;;2.73;;
64950;SDS011;51482;47.014;7.652;2024-01-15T01:07:59;2.50;;;2.30;;
64950;SDS011;51482;47.014;7.652;2024-01-15T01:10:25;2.77;;;2.47;;
64950;SDS011;51482;47.014;7.652;2024-01-15T01:12:51;3.27;;;2.87;;
64950;SDS011;51482;47.014;7.652;2024-01-15T01:15:16;2.67;;;2.40;;
64950;SDS011;51482;47.014;7.652;2024-01-15T01:17:42;2.90;;;2.60;;
64950;SDS011;51482;47.014;7.652;2024-01-15T01:20:08;2.50;;;2.30;;
64950;SDS011;51482;47.014;7.652;2024-01-15T01:22:35;3.20;;;2.50;;
64950;SDS011;51482;47.014;7.652;2024-01-15T01:25:01;2.57;;;2.33;;
64950;SDS011;51482;47.014;7.652;2024-01-15T01:27:27;2.37;;;2.03;;
64950;SDS011;51482;47.014;7.652;2024-01-15T01:29:53;2.50;;;2.20;;
64950;SDS011;51482;47.014;7.652;2024-01-15T01:32:18;2.27;;;2.07;;
64950;SDS011;51482;47.014;7.652;2024-01-15T01:34:44;2.70;;;2.50;;
64950;SDS011;51482;47.014;7.652;2024-01-15T01:37:10;4.07;;;2.20;;
64950;SDS011;51482;47.014;7.652;2024-01-15T01:39:38;2.60;;;2.40;;
64950;SDS011;51482;47.014;7.652;2024-01-15T01:42:04;2.40;;;2.20;;
64950;SDS011;51482;47.014;7.652;2024-01-15T01:44:30;2.67;;;2.30;;
64950;SDS011;51482;47.014;7.652;2024-01-15T01:46:56;2.30;;;2.10;;
64950;SDS011;51482;47.014;7.652;2024-01-15T01:49:23;2.07;;;1.97;;
64950;SDS011;51482;47.014;7.652;2024-01-15T01:51:49;2.60;;;2.40;;
64950;SDS011;51482;47.014;7.652;2024-01-15T01:54:15;2.00;;;1.80;;
64950;SDS011;51482;47.014;7.652;2024-01-15T01:56:41;3.03;;;2.60;;
64950;SDS011;51482;47.014;7.652;2024-01-15T01:59:07;4.47;;;2.60;;
64950;SDS011;51482;47.014;7.652;2024-01-15T02:01:36;2.50;;;2.30;;
64950;SDS011;51482;47.014;7.652;2024-01-15T02:04:01;2.20;;;2.00;;
64950;SDS011;51482;47.014;7.652;2024-01-15T02:06:28;2.13;;;1.93;;
64950;SDS011;51482;47.014;7.652;2024-01-15T02:08:54;2.53;;;2.20;;
64950;SDS011;51482;47.014;7.652;2024-01-15T02:11:20;2.87;;;1.97;;
64950;SDS011;51482;47.014;7.652;2024-01-15T02:13:46;2.43;;;2.30;;
64950;SDS011;51482;47.014;7.652;2024-01-15T02:16:12;2.60;;;2.30;;
64950;SDS011;51482;47.014;7.652;2024-01-15T02:18:41;2.63;;;2.20;;
64950;SDS011;51482;47.014;7.652;2024-01-15T02:21:07;2.30;;;1.90;;
64950;SDS011;51482;47.014;7.652;2024-01-15T02:23:33;2.73;;;2.53;;
64950;SDS011;51482;47.014;7.652;2024-01-15T02:25:59;2.93;;;2.50;;
64950;SDS011;51482;47.014;7.652;2024-01-15T02:28:24;3.33;;;2.20;;
64950;SDS011;51482;47.014;7.652;2024-01-15T02:30:50;2.40;;;2.17;;
64950;SDS011;51482;47.014;7.652;2024-01-15T02:33:15;2.33;;;2.13;;
64950;SDS011;51482;47.014;7.652;2024-01-15T02:35:41;2.60;;;2.30;;
64950;SDS011;51482;47.014;7.652;2024-01-15T02:38:07;2.30;;;2.10;;
64950;SDS011;51482;47.014;7.652;2024-01-15T02:40:33;2.33;;;2.00;;
64950;SDS011;51482;47.014;7.652;2024-01-15T02:42:59;3.47;;;2.33;;
64950;SDS011;51482;47.014;7.652;2024-01-15T02:45:25;2.63;;;2.23;;
64950;SDS011;51482;47.014;7.652;2024-01-15T02:47:51;2.70;;;2.47;;
64950;SDS011;51482;47.014;7.652;2024-01-15T02:50:16;2.23;;;2.13;;
64950;SDS011;51482;47.014;7.652;2024-01-15T02:52:42;2.50;;;2.30;;
64950;SDS011;51482;47.014;7.652;2024-01-15T02:55:08;3.47;;;2.17;;
64950;SDS011;51482;47.014;7.652;2024-01-15T02:57:33;2.70;;;2.50;;
64950;SDS011;51482;47.014;7.652;2024-01-15T02:59:59;3.27;;;2.50;;
64950;SDS011;51482;47.014;7.652;2024-01-15T03:02:25;3.23;;;2.63;;
64950;SDS011;51482;47.014;7.652;2024-01-15T03:04:50;2.60;;;2.40;;
64950;SDS011;51482;47.014;7.652;2024-01-15T03:07:16;2.80;;;2.57;;
64950;SDS011;51482;47.014;7.652;2024-01-15T03:09:42;2.93;;;2.60;;
64950;SDS011;51482;47.014;7.652;2024-01-15T03:12:07;2.50;;;2.30;;
64950;SDS011;51482;47.014;7.652;2024-01-15T03:14:33;5.17;;;2.80;;
64950;SDS011;51482;47.014;7.652;2024-01-15T03:17:02;2.77;;;2.47;;
64950;SDS011;51482;47.014;7.652;2024-01-15T03:19:28;2.40;;;2.20;;
64950;SDS011;51482;47.014;7.652;2024-01-15T03:21:55;3.37;;;2.47;;
64950;SDS011;51482;47.014;7.652;2024-01-15T03:24:21;4.57;;;2.60;;
64950;SDS011;51482;47.014;7.652;2024-01-15T03:26:47;2.83;;;2.63;;
64950;SDS011;51482;47.014;7.652;2024-01-15T03:29:12;2.37;;;2.23;;
64950;SDS011;51482;47.014;7.652;2024-01-15T03:31:38;2.87;;;2.57;;
64950;SDS011;51482;47.014;7.652;2024-01-15T03:34:03;2.63;;;2.43;;
64950;SDS011;51482;47.014;7.652;2024-01-15T03:36:29;2.50;;;2.30;;
64950;SDS011;51482;47.014;7.652;2024-01-15T03:38:54;2.37;;;2.20;;
64950;SDS011;51482;47.014;7.652;2024-01-15T03:41:20;2.67;;;2.47;;
64950;SDS011;51482;47.014;7.652;2024-01-15T03:43:45;2.90;;;2.70;;
64950;SDS011;51482;47.014;7.652;2024-01-15T03:46:11;3.97;;;2.67;;
64950;SDS011;51482;47.014;7.652;2024-01-15T03:48:37;2.80;;;2.53;;
64950;SDS011;51482;47.014;7.652;2024-01-15T03:51:03;2.30;;;2.10;;
64950;SDS011;51482;47.014;7.652;2024-01-15T03:53:29;2.57;;;2.37;;
64950;SDS011;51482;47.014;7.652;2024-01-15T03:55:54;2.40;;;2.20;;
64950;SDS011;51482;47.014;7.652;2024-01-15T03:58:20;2.73;;;2.47;;
64950;SDS011;51482;47.014;7.652;2024-01-15T04:00:45;3.60;;;2.70;;
64950;SDS011;51482;47.014;7.652;2024-01-15T04:03:11;2.87;;;2.50;;
64950;SDS011;51482;47.014;7.652;2024-01-15T04:05:36;3.07;;;2.77;;
64950;SDS011;51482;47.014;7.652;2024-01-15T04:08:03;2.90;;;2.60;;
64950;SDS011;51482;47.014;7.652;2024-01-15T04:10:28;4.53;;;2.77;;
64950;SDS011;51482;47.014;7.652;2024-01-15T04:12:54;2.67;;;2.47;;
64950;SDS011;51482;47.014;7.652;2024-01-15T04:15:19;2.97;;;2.67;;
64950;SDS011;51482;47.014;7.652;2024-01-15T04:17:45;3.53;;;3.10;;
64950;SDS011;51482;47.014;7.652;2024-01-15T04:20:10;4.07;;;3.30;;
64950;SDS011;51482;47.014;7.652;2024-01-15T04:22:36;3.43;;;3.13;;
64950;SDS011;51482;47.014;7.652;2024-01-15T04:25:02;4.07;;;3.07;;
64950;SDS011;51482;47.014;7.652;2024-01-15T04:27:28;3.43;;;3.10;;
64950;SDS011;51482;47.014;7.652;2024-01-15T04:29:53;2.90;;;2.70;;
64950;SDS011;51482;47.014;7.652;2024-01-15T04:32:19;4.00;;;3.17;;
64950;SDS011;51482;47.014;7.652;2024-01-15T04:34:45;3.90;;;3.33;;
64950;SDS011;51482;47.014;7.652;2024-01-15T04:37:10;3.33;;;3.00;;
64950;SDS011;51482;47.014;7.652;2024-01-15T04:39:36;3.47;;;3.17;;
64950;SDS011;51482;47.014;7.652;2024-01-15T04:42:02;3.97;;;3.00;;
64950;SDS011;51482;47.014;7.652;2024-01-15T04:44:28;3.77;;;2.90;;
64950;SDS011;51482;47.014;7.652;2024-01-15T04:46:56;3.57;;;2.90;;
64950;SDS011;51482;47.014;7.652;2024-01-15T04:49:22;4.00;;;3.60;;
64950;SDS011;51482;47.014;7.652;2024-01-15T04:51:47;4.60;;;3.47;;
64950;SDS011;51482;47.014;7.652;2024-01-15T04:54:13;3.30;;;2.93;;
64950;SDS011;51482;47.014;7.652;2024-01-15T04:56:42;3.83;;;3.43;;
64950;SDS011;51482;47.014;7.652;2024-01-15T04:59:08;4.67;;;3.30;;
64950;SDS011;51482;47.014;7.652;2024-01-15T05:01:33;3.77;;;3.20;;
64950;SDS011;51482;47.014;7.652;2024-01-15T05:03:59;4.23;;;3.60;;
64950;SDS011;51482;47.014;7.652;2024-01-15T05:06:25;3.67;;;3.17;;
64950;SDS011;51482;47.014;7.652;2024-01-15T05:08:50;3.83;;;3.53;;
64950;SDS011;51482;47.014;7.652;2024-01-15T05:11:16;4.47;;;3.40;;
64950;SDS011;51482;47.014;7.652;2024-01-15T05:13:41;4.10;;;3.67;;
64950;SDS011;51482;47.014;7.652;2024-01-15T05:16:07;4.50;;;3.50;;
64950;SDS011;51482;47.014;7.652;2024-01-15T05:18:32;5.80;;;3.80;;
64950;SDS011;51482;47.014;7.652;2024-01-15T05:20:58;3.63;;;2.87;;
64950;SDS011;51482;47.014;7.652;2024-01-15T05:23:24;4.00;;;3.43;;
64950;SDS011;51482;47.014;7.652;2024-01-15T05:25:49;4.40;;;3.70;;
64950;SDS011;51482;47.014;7.652;2024-01-15T05:28:15;3.37;;;2.90;;
64950;SDS011;51482;47.014;7.652;2024-01-15T05:30:40;4.00;;;3.60;;
64950;SDS011;51482;47.014;7.652;2024-01-15T05:33:06;3.33;;;3.03;;
64950;SDS011;51482;47.014;7.652;2024-01-15T05:35:32;5.10;;;3.40;;
64950;SDS011;51482;47.014;7.652;2024-01-15T05:37:58;4.37;;;3.23;;
64950;SDS011;51482;47.014;7.652;2024-01-15T05:40:24;3.20;;;2.90;;
64950;SDS011;51482;47.014;7.652;2024-01-15T05:42:50;3.43;;;3.13;;
64950;SDS011;51482;47.014;7.652;2024-01-15T05:45:15;3.30;;;2.60;;
64950;SDS011;51482;47.014;7.652;2024-01-15T05:47:41;4.23;;;3.53;;
64950;SDS011;51482;47.014;7.652;2024-01-15T05:50:06;4.73;;;3.40;;
64950;SDS011;51482;47.014;7.652;2024-01-15T05:52:33;4.73;;;3.00;;
64950;SDS011;51482;47.014;7.652;2024-01-15T05:54:58;3.87;;;3.13;;
64950;SDS011;51482;47.014;7.652;2024-01-15T05:57:24;4.00;;;2.90;;
64950;SDS011;51482;47.014;7.652;2024-01-15T05:59:49;4.47;;;3.30;;
64950;SDS011;51482;47.014;7.652;2024-01-15T06:02:15;3.40;;;3.10;;
64950;SDS011;51482;47.014;7.652;2024-01-15T06:04:40;3.60;;;3.30;;
64950;SDS011;51482;47.014;7.652;2024-01-15T06:07:06;3.00;;;2.70;;
64950;SDS011;51482;47.014;7.652;2024-01-15T06:09:32;3.30;;;3.00;;
64950;SDS011;51482;47.014;7.652;2024-01-15T06:11:57;3.20;;;2.90;;
64950;SDS011;51482;47.014;7.652;2024-01-15T06:14:23;4.07;;;2.93;;
64950;SDS011;51482;47.014;7.652;2024-01-15T06:16:48;3.80;;;2.90;;
64950;SDS011;51482;47.014;7.652;2024-01-15T06:19:14;3.10;;;2.80;;
64950;SDS011;51482;47.014;7.652;2024-01-15T06:21:40;3.63;;;2.97;;
64950;SDS011;51482;47.014;7.652;2024-01-15T06:24:05;2.60;;;2.40;;
64950;SDS011;51482;47.014;7.652;2024-01-15T06:26:31;3.20;;;2.60;;
64950;SDS011;51482;47.014;7.652;2024-01-15T06:28:57;2.80;;;2.50;;
64950;SDS011;51482;47.014;7.652;2024-01-15T06:31:22;2.97;;;2.67;;
64950;SDS011;51482;47.014;7.652;2024-01-15T06:33:48;3.17;;;2.83;;
64950;SDS011;51482;47.014;7.652;2024-01-15T06:36:14;2.50;;;2.30;;
64950;SDS011;51482;47.014;7.652;2024-01-15T06:38:41;2.83;;;2.63;;
64950;SDS011;51482;47.014;7.652;2024-01-15T06:41:08;3.07;;;2.53;;
64950;SDS011;51482;47.014;7.652;2024-01-15T06:43:33;2.63;;;2.43;;
64950;SDS011;51482;47.014;7.652;2024-01-15T06:45:59;2.10;;;1.90;;
64950;SDS011;51482;47.014;7.652;2024-01-15T06:48:24;2.50;;;2.30;;
64950;SDS011;51482;47.014;7.652;2024-01-15T06:50:50;2.70;;;2.50;;
64950;SDS011;51482;47.014;7.652;2024-01-15T06:53:16;3.00;;;2.50;;
64950;SDS011;51482;47.014;7.652;2024-01-15T06:55:41;2.90;;;2.57;;
64950;SDS011;51482;47.014;7.652;2024-01-15T06:58:07;3.83;;;2.50;;
64950;SDS011;51482;47.014;7.652;2024-01-15T07:00:32;3.90;;;2.80;;
64950;SDS011;51482;47.014;7.652;2024-01-15T07:02:58;2.43;;;2.23;;
64950;SDS011;51482;47.014;7.652;2024-01-15T07:05:23;2.30;;;2.20;;
64950;SDS011;51482;47.014;7.652;2024-01-15T07:07:49;2.23;;;2.13;;
64950;SDS011;51482;47.014;7.652;2024-01-15T07:10:16;2.33;;;2.17;;
64950;SDS011;51482;47.014;7.652;2024-01-15T07:12:42;2.60;;;2.17;;
64950;SDS011;51482;47.014;7.652;2024-01-15T07:15:08;2.70;;;2.07;;
64950;SDS011;51482;47.014;7.652;2024-01-15T07:17:34;2.27;;;2.07;;
64950;SDS011;51482;47.014;7.652;2024-01-15T07:20:00;1.83;;;1.73;;
64950;SDS011;51482;47.014;7.652;2024-01-15T07:22:26;2.23;;;2.10;;
64950;SDS011;51482;47.014;7.652;2024-01-15T07:24:51;2.30;;;2.20;;
64950;SDS011;51482;47.014;7.652;2024-01-15T07:27:17;2.53;;;2.33;;
64950;SDS011;51482;47.014;7.652;2024-01-15T07:29:43;3.90;;;2.67;;
64950;SDS011;51482;47.014;7.652;2024-01-15T07:32:08;2.83;;;2.30;;
64950;SDS011;51482;47.014;7.652;2024-01-15T07:34:34;2.53;;;2.33;;
64950;SDS011;51482;47.014;7.652;2024-01-15T07:37:00;2.53;;;2.10;;
64950;SDS011;51482;47.014;7.652;2024-01-15T07:39:25;2.10;;;2.00;;
64950;SDS011;51482;47.014;7.652;2024-01-15T07:41:51;2.10;;;1.90;;
64950;SDS011;51482;47.014;7.652;2024-01-15T07:44:17;2.07;;;1.97;;
64950;SDS011;51482;47.014;7.652;2024-01-15T07:46:46;2.80;;;2.50;;
64950;SDS011;51482;47.014;7.652;2024-01-15T07:49:12;2.00;;;1.90;;
64950;SDS011;51482;47.014;7.652;2024-01-15T07:51:37;3.13;;;2.50;;
64950;SDS011;51482;47.014;7.652;2024-01-15T07:54:05;3.33;;;2.20;;
64950;SDS011;51482;47.014;7.652;2024-01-15T07:56:31;2.40;;;2.20;;
64950;SDS011;51482;47.014;7.652;2024-01-15T07:58:56;2.00;;;1.90;;
64950;SDS011;51482;47.014;7.652;2024-01-15T08:01:22;2.77;;;2.53;;
64950;SDS011;51482;47.014;7.652;2024-01-15T08:03:48;2.80;;;2.60;;
64950;SDS011;51482;47.014;7.652;2024-01-15T08:06:13;2.37;;;2.10;;
64950;SDS011;51482;47.014;7.652;2024-01-15T08:08:39;2.70;;;2.50;;
64950;SDS011;51482;47.014;7.652;2024-01-15T08:11:04;2.93;;;2.70;;
64950;SDS011;51482;47.014;7.652;2024-01-15T08:13:30;2.13;;;2.03;;
64950;SDS011;51482;47.014;7.652;2024-01-15T08:15:56;2.13;;;1.93;;
64950;SDS011;51482;47.014;7.652;2024-01-15T08:18:21;2.23;;;2.13;;
64950;SDS011;51482;47.014;7.652;2024-01-15T08:20:47;2.33;;;2.17;;
64950;SDS011;51482;47.014;7.652;2024-01-15T08:23:13;2.43;;;2.23;;
64950;SDS011;51482;47.014;7.652;2024-01-15T08:25:38;2.33;;;2.20;;
64950;SDS011;51482;47.014;7.652;2024-01-15T08:28:04;2.20;;;1.93;;
64950;SDS011;51482;47.014;7.652;2024-01-15T08:30:30;2.67;;;2.40;;
64950;SDS011;51482;47.014;7.652;2024-01-15T08:32:56;2.57;;;1.90;;
64950;SDS011;51482;47.014;7.652;2024-01-15T08:35:22;3.80;;;2.70;;
64950;SDS011;51482;47.014;7.652;2024-01-15T08:37:51;2.07;;;1.97;;
64950;SDS011;51482;47.014;7.652;2024-01-15T08:40:17;2.33;;;2.13;;
64950;SDS011;51482;47.014;7.652;2024-01-15T08:42:43;3.97;;;2.67;;
64950;SDS011;51482;47.014;7.652;2024-01-15T08:45:10;2.83;;;2.40;;
64950;SDS011;51482;47.014;7.652;2024-01-15T08:47:36;2.40;;;2.20;;
64950;SDS011;51482;47.014;7.652;2024-01-15T08:50:02;2.50;;;2.30;;
64950;SDS011;51482;47.014;7.652;2024-01-15T08:52:28;2.93;;;2.53;;
64950;SDS011;51482;47.014;7.652;2024-01-15T08:54:55;3.23;;;2.60;;
64950;SDS011;51482;47.014;7.652;2024-01-15T08:57:21;2.67;;;2.37;;
64950;SDS011;51482;47.014;7.652;2024-01-15T08:59:47;2.53;;;2.33;;
64950;SDS011;51482;47.014;7.652;2024-01-15T09:02:12;2.40;;;2.20;;
64950;SDS011;51482;47.014;7.652;2024-01-15T09:04:39;2.50;;;2.30;;
64950;SDS011;51482;47.014;7.652;2024-01-15T09:07:05;2.47;;;2.27;;
64950;SDS011;51482;47.014;7.652;2024-01-15T09:09:31;3.10;;;2.23;;
64950;SDS011;51482;47.014;7.652;2024-01-15T09:11:57;3.37;;;2.33;;
64950;SDS011;51482;47.014;7.652;2024-01-15T09:14:23;4.13;;;2.60;;
64950;SDS011;51482;47.014;7.652;2024-01-15T09:16:49;2.70;;;2.50;;
64950;SDS011;51482;47.014;7.652;2024-01-15T09:19:14;2.10;;;2.00;;
64950;SDS011;51482;47.014;7.652;2024-01-15T09:21:40;2.80;;;2.47;;
64950;SDS011;51482;47.014;7.652;2024-01-15T09:24:06;2.73;;;2.30;;
64950;SDS011;51482;47.014;7.652;2024-01-15T09:26:31;2.60;;;2.40;;
64950;SDS011;51482;47.014;7.652;2024-01-15T09:28:57;3.10;;;2.27;;
64950;SDS011;51482;47.014;7.652;2024-01-15T09:31:22;4.37;;;2.70;;
64950;SDS011;51482;47.014;7.652;2024-01-15T09:33:49;3.57;;;3.27;;
64950;SDS011;51482;47.014;7.652;2024-01-15T09:36:16;2.50;;;2.30;;
64950;SDS011;51482;47.014;7.652;2024-01-15T09:38:42;2.60;;;2.40;;
64950;SDS011;51482;47.014;7.652;2024-01-15T09:41:07;2.50;;;2.30;;
64950;SDS011;51482;47.014;7.652;2024-01-15T09:43:33;2.47;;;2.27;;
64950;SDS011;51482;47.014;7.652;2024-01-15T09:45:59;2.73;;;2.30;;
64950;SDS011;51482;47.014;7.652;2024-01-15T09:48:24;2.90;;;2.60;;
64950;SDS011;51482;47.014;7.652;2024-01-15T09:50:50;2.70;;;2.50;;
64950;SDS011;51482;47.014;7.652;2024-01-15T09:53:17;2.47;;;2.27;;
64950;SDS011;51482;47.014;7.652;2024-01-15T09:55:43;3.57;;;2.80;;
64950;SDS011;51482;47.014;7.652;2024-01-15T09:58:09;2.87;;;2.47;;
64950;SDS011;51482;47.014;7.652;2024-01-15T10:00:35;5.40;;;2.90;;
64950;SDS011;51482;47.014;7.652;2024-01-15T10:03:04;5.70;;;2.77;;
64950;SDS011;51482;47.014;7.652;2024-01-15T10:05:31;5.57;;;3.07;;
64950;SDS011;51482;47.014;7.652;2024-01-15T10:07:57;5.33;;;2.50;;
64950;SDS011;51482;47.014;7.652;2024-01-15T10:10:25;3.97;;;3.00;;
64950;SDS011;51482;47.014;7.652;2024-01-15T10:12:51;3.47;;;3.13;;
64950;SDS011;51482;47.014;7.652;2024-01-15T10:15:16;5.17;;;2.60;;
64950;SDS011;51482;47.014;7.652;2024-01-15T10:17:42;3.43;;;2.87;;
64950;SDS011;51482;47.014;7.652;2024-01-15T10:20:09;3.50;;;3.03;;
64950;SDS011;51482;47.014;7.652;2024-01-15T10:22:38;3.33;;;2.83;;
64950;SDS011;51482;47.014;7.652;2024-01-15T10:25:05;4.27;;;2.60;;
64950;SDS011;51482;47.014;7.652;2024-01-15T10:27:35;4.37;;;2.57;;
64950;SDS011;51482;47.014;7.652;2024-01-15T10:30:01;2.60;;;2.40;;
64950;SDS011;51482;47.014;7.652;2024-01-15T10:32:28;3.03;;;2.70;;
64950;SDS011;51482;47.014;7.652;2024-01-15T10:34:54;2.60;;;2.40;;
64950;SDS011;51482;47.014;7.652;2024-01-15T10:37:20;2.70;;;2.50;;
64950;SDS011;51482;47.014;7.652;2024-01-15T10:39:48;2.87;;;2.57;;
64950;SDS011;51482;47.014;7.652;2024-01-15T10:42:15;3.07;;;2.37;;
64950;SDS011;51482;47.014;7.652;2024-01-15T10:44:42;2.67;;;2.47;;
64950;SDS011;51482;47.014;7.652;2024-01-15T10:47:08;2.93;;;2.37;;
64950;SDS011;51482;47.014;7.652;2024-01-15T10:49:34;4.40;;;3.57;;
64950;SDS011;51482;47.014;7.652;2024-01-15T10:52:00;3.30;;;3.00;;
64950;SDS011;51482;47.014;7.652;2024-01-15T10:54:27;3.20;;;2.80;;
64950;SDS011;51482;47.014;7.652;2024-01-15T10:56:53;3.17;;;2.80;;
64950;SDS011;51482;47.014;7.652;2024-01-15T10:59:20;3.20;;;2.90;;
64950;SDS011;51482;47.014;7.652;2024-01-15T11:01:47;3.97;;;3.00;;
64950;SDS011;51482;47.014;7.652;2024-01-15T11:04:14;3.67;;;3.00;;
64950;SDS011;51482;47.014;7.652;2024-01-15T11:06:45;3.43;;;3.13;;
64950;SDS011;51482;47.014;7.652;2024-01-15T11:09:12;3.07;;;2.20;;
64950;SDS011;51482;47.014;7.652;2024-01-15T11:11:40;6.23;;;4.80;;
64950;SDS011;51482;47.014;7.652;2024-01-15T11:14:09;3.80;;;3.37;;
64950;SDS011;51482;47.014;7.652;2024-01-15T11:16:54;3.27;;;2.93;;
64950;SDS011;51482;47.014;7.652;2024-01-15T11:19:24;3.97;;;3.20;;
64950;SDS011;51482;47.014;7.652;2024-01-15T11:21:50;4.10;;;3.03;;
64950;SDS011;51482;47.014;7.652;2024-01-15T11:24:33;4.07;;;3.23;;
64950;SDS011;51482;47.014;7.652;2024-01-15T11:27:00;4.33;;;2.93;;
64950;SDS011;51482;47.014;7.652;2024-01-15T11:34:20;4.63;;;3.43;;
64950;SDS011;51482;47.014;7.652;2024-01-15T11:42:01;4.00;;;3.43;;
64950;SDS011;51482;47.014;7.652;2024-01-15T11:44:28;4.60;;;3.47;;
64950;SDS011;51482;47.014;7.652;2024-01-15T11:46:57;3.60;;;3.30;;
64950;SDS011;51482;47.014;7.652;2024-01-15T11:51:59;5.60;;;3.47;;
64950;SDS011;51482;47.014;7.652;2024-01-15T11:54:27;4.00;;;3.47;;
64950;SDS011;51482;47.014;7.652;2024-01-15T11:56:58;4.10;;;3.67;;
64950;SDS011;51482;47.014;7.652;2024-01-15T11:59:28;3.63;;;3.30;;
64950;SDS011;51482;47.014;7.652;2024-01-15T12:01:54;4.23;;;3.80;;
64950;SDS011;51482;47.014;7.652;2024-01-15T12:04:20;9.67;;;5.63;;
64950;SDS011;51482;47.014;7.652;2024-01-15T12:06:46;5.47;;;4.93;;
64950;SDS011;51482;47.014;7.652;2024-01-15T12:09:11;5.43;;;4.10;;
64950;SDS011;51482;47.014;7.652;2024-01-15T12:11:37;5.13;;;4.17;;
64950;SDS011;51482;47.014;7.652;2024-01-15T12:14:06;4.30;;;3.83;;
64950;SDS011;51482;47.014;7.652;2024-01-15T12:16:32;6.60;;;4.00;;
64950;SDS011;51482;47.014;7.652;2024-01-15T12:18:59;4.63;;;4.10;;
64950;SDS011;51482;47.014;7.652;2024-01-15T12:21:26;5.10;;;4.10;;
64950;SDS011;51482;47.014;7.652;2024-01-15T12:23:51;5.77;;;4.40;;
64950;SDS011;51482;47.014;7.652;2024-01-15T12:26:17;5.47;;;4.20;;
64950;SDS011;51482;47.014;7.652;2024-01-15T12:28:43;7.57;;;6.03;;
64950;SDS011;51482;47.014;7.652;2024-01-15T12:31:08;5.00;;;4.27;;
64950;SDS011;51482;47.014;7.652;2024-01-15T12:33:34;5.50;;;4.07;;
64950;SDS011;51482;47.014;7.652;2024-01-15T12:35:59;7.50;;;5.17;;
64950;SDS011;51482;47.014;7.652;2024-01-15T12:38:25;6.23;;;4.63;;
64950;SDS011;51482;47.014;7.652;2024-01-15T12:40:53;5.57;;;4.50;;
64950;SDS011;51482;47.014;7.652;2024-01-15T12:43:19;5.33;;;4.07;;
64950;SDS011;51482;47.014;7.652;2024-01-15T12:45:45;4.60;;;4.03;;
64950;SDS011;51482;47.014;7.652;2024-01-15T12:48:11;5.77;;;4.20;;
64950;SDS011;51482;47.014;7.652;2024-01-15T12:50:38;5.67;;;4.43;;
64950;SDS011;51482;47.014;7.652;2024-01-15T12:53:03;6.87;;;4.60;;
64950;SDS011;51482;47.014;7.652;2024-01-15T12:55:29;4.97;;;3.97;;
64950;SDS011;51482;47.014;7.652;2024-01-15T12:57:55;4.70;;;4.20;;
64950;SDS011;51482;47.014;7.652;2024-01-15T13:00:20;5.47;;;4.90;;
64950;SDS011;51482;47.014;7.652;2024-01-15T13:02:46;5.07;;;4.40;;
64950;SDS011;51482;47.014;7.652;2024-01-15T13:05:12;3.87;;;3.40;;
64950;SDS011;51482;47.014;7.652;2024-01-15T13:07:38;4.73;;;3.60;;
64950;SDS011;51482;47.014;7.652;2024-01-15T13:10:04;6.20;;;4.03;;
64950;SDS011;51482;47.014;7.652;2024-01-15T13:12:30;4.23;;;3.30;;
64950;SDS011;51482;47.014;7.652;2024-01-15T13:14:57;3.93;;;3.40;;
64950;SDS011;51482;47.014;7.652;2024-01-15T13:17:23;4.37;;;3.17;;
64950;SDS011;51482;47.014;7.652;2024-01-15T13:19:49;3.77;;;3.30;;
64950;SDS011;51482;47.014;7.652;2024-01-15T13:22:14;3.40;;;3.10;;
64950;SDS011;51482;47.014;7.652;2024-01-15T13:24:40;4.33;;;4.00;;
64950;SDS011;51482;47.014;7.652;2024-01-15T13:27:06;3.83;;;3.27;;
64950;SDS011;51482;47.014;7.652;2024-01-15T13:29:32;5.17;;;3.20;;
64950;SDS011;51482;47.014;7.652;2024-01-15T13:31:58;4.87;;;3.47;;
64950;SDS011;51482;47.014;7.652;2024-01-15T13:34:24;3.57;;;2.90;;
64950;SDS011;51482;47.014;7.652;2024-01-15T13:36:49;3.30;;;2.90;;
64950;SDS011;51482;47.014;7.652;2024-01-15T13:39:15;3.60;;;3.17;;
64950;SDS011;51482;47.014;7.652;2024-01-15T13:41:45;3.40;;;3.10;;
64950;SDS011;51482;47.014;7.652;2024-01-15T13:44:11;3.83;;;2.90;;
64950;SDS011;51482;47.014;7.652;2024-01-15T13:46:37;2.73;;;2.53;;
64950;SDS011;51482;47.014;7.652;2024-01-15T13:49:03;4.97;;;2.87;;
64950;SDS011;51482;47.014;7.652;2024-01-15T13:51:30;3.40;;;2.63;;
64950;SDS011;51482;47.014;7.652;2024-01-15T13:53:56;2.70;;;2.50;;
64950;SDS011;51482;47.014;7.652;2024-01-15T13:56:22;2.93;;;2.30;;
64950;SDS011;51482;47.014;7.652;2024-01-15T13:58:48;3.00;;;2.80;;
64950;SDS011;51482;47.014;7.652;2024-01-15T14:01:13;4.50;;;3.90;;
64950;SDS011;51482;47.014;7.652;2024-01-15T14:03:39;8.57;;;7.63;;
64950;SDS011;51482;47.014;7.652;2024-01-15T14:06:04;2.40;;;2.20;;
64950;SDS011;51482;47.014;7.652;2024-01-15T14:08:34;2.00;;;1.90;;
64950;SDS011;51482;47.014;7.652;2024-01-15T14:11:03;2.17;;;1.97;;
64950;SDS011;51482;47.014;7.652;2024-01-15T14:13:30;3.63;;;2.97;;
64950;SDS011;51482;47.014;7.652;2024-01-15T14:15:57;1.93;;;1.80;;
64950;SDS011;51482;47.014;7.652;2024-01-15T14:18:22;2.37;;;2.17;;
64950;SDS011;51482;47.014;7.652;2024-01-15T14:20:48;2.50;;;2.30;;
64950;SDS011;51482;47.014;7.652;2024-01-15T14:23:13;2.40;;;2.20;;
64950;SDS011;51482;47.014;7.652;2024-01-15T14:25:39;2.20;;;1.83;;
64950;SDS011;51482;47.014;7.652;2024-01-15T14:28:04;2.67;;;1.50;;
64950;SDS011;51482;47.014;7.652;2024-01-15T14:30:30;2.13;;;1.97;;
64950;SDS011;51482;47.014;7.652;2024-01-15T14:32:55;3.50;;;2.03;;
64950;SDS011;51482;47.014;7.652;2024-01-15T14:35:21;1.70;;;1.60;;
64950;SDS011;51482;47.014;7.652;2024-01-15T14:37:47;2.50;;;2.30;;
64950;SDS011;51482;47.014;7.652;2024-01-15T14:40:13;1.80;;;1.70;;
64950;SDS011;51482;47.014;7.652;2024-01-15T14:42:40;2.17;;;2.07;;
64950;SDS011;51482;47.014;7.652;2024-01-15T14:45:06;2.00;;;1.90;;
64950;SDS011;51482;47.014;7.652;2024-01-15T14:47:38;2.60;;;2.40;;
64950;SDS011;51482;47.014;7.652;2024-01-15T14:50:08;2.43;;;2.23;;
64950;SDS011;51482;47.014;7.652;2024-01-15T14:52:35;2.23;;;2.03;;
64950;SDS011;51482;47.014;7.652;2024-01-15T14:55:01;2.77;;;1.80;;